Time;durP1;ratioP1;P1;durP2;ratioP2;P2;SDS_P1;SDS_P2;PMS_P1;PMS_P2;Temp;Humidity;BMP_temperature;BMP_pressure;BME280_temperature;BME280_humidity;BME280_pressure;Samples;Min_cycle;Max_cycle;Signal;HPM_P1;HPM_P2
2023/02/01 00:01:34;;;;;;;1999.90;999.90;;;5.40;99.90;;;;;;5094895;28;20433;-72
2023/02/01 00:04:00;;;;;;;1999.90;999.90;;;5.40;99.90;;;;;;5094943;28;20028;-72
2023/02/01 00:06:26;;;;;;;1999.90;999.90;;;5.40;99.90;;;;;;5094227;28;20028;-72
2023/02/01 00:08:55;;;;;;;1999.90;999.90;;;5.50;99.90;;;;;;5093597;28;20032;-72
2023/02/01 00:11:21;;;;;;;1999.90;999.90;;;5.50;99.90;;;;;;5093361;28;20507;-79
2023/02/01 00:13:48;;;;;;;1999.90;999.90;;;5.50;99.90;;;;;;5094691;28;20408;-72
2023/02/01 00:16:19;;;;;;;1999.90;999.90;;;5.50;99.90;;;;;;5092920;28;20027;-72
2023/02/01 00:18:46;;;;;;;1999.90;999.90;;;5.50;99.90;;;;;;5094675;28;20047;-72
2023/02/01 00:21:13;;;;;;;1999.90;999.90;;;5.60;99.90;;;;;;5094069;28;20123;-72
2023/02/01 00:23:39;;;;;;;1999.90;999.90;;;5.60;99.90;;;;;;5093749;28;20020;-72
2023/02/01 00:26:07;;;;;;;1999.90;999.90;;;5.60;99.90;;;;;;5093232;28;20111;-72
2023/02/01 00:28:33;;;;;;;1999.90;999.90;;;5.60;99.90;;;;;;5094018;28;20028;-72
2023/02/01 00:31:00;;;;;;;1999.90;999.90;;;5.70;99.90;;;;;;5094545;28;20435;-72
2023/02/01 00:33:27;;;;;;;1999.90;999.90;;;5.70;99.90;;;;;;5079214;28;20029;-72
2023/02/01 00:35:58;;;;;;;1999.90;999.90;;;5.70;99.90;;;;;;5073652;28;20507;-72
2023/02/01 00:38:23;;;;;;;1999.90;999.90;;;5.70;99.90;;;;;;5093747;28;20020;-79
2023/02/01 00:40:49;;;;;;;1999.90;999.90;;;5.70;99.90;;;;;;5093945;28;20027;-72
2023/02/01 00:43:14;;;;;;;1999.90;999.90;;;5.70;99.90;;;;;;5094214;28;20065;-72
2023/02/01 00:45:40;;;;;;;1999.90;999.90;;;5.80;99.90;;;;;;5093406;28;20048;-72
2023/02/01 00:48:06;;;;;;;1999.90;999.90;;;5.80;99.90;;;;;;5094138;28;20028;-72
2023/02/01 00:50:31;;;;;;;1999.90;999.90;;;5.80;99.90;;;;;;5093776;28;20107;-80
2023/02/01 00:52:57;;;;;;;1999.90;999.90;;;5.90;99.90;;;;;;5094229;28;20032;-80
2023/02/01 00:55:23;;;;;;;1999.90;999.90;;;5.90;99.90;;;;;;5094135;28;20537;-72
2023/02/01 00:57:48;;;;;;;1999.90;999.90;;;5.90;99.90;;;;;;5093858;28;20120;-72
2023/02/01 01:00:15;;;;;;;1999.90;999.90;;;5.90;99.90;;;;;;5093359;28;20103;-72
2023/02/01 01:02:41;;;;;;;1999.90;999.90;;;5.90;99.90;;;;;;5093880;28;20024;-72
2023/02/01 01:05:07;;;;;;;1999.90;999.90;;;5.90;99.90;;;;;;5094169;28;20020;-72
2023/02/01 01:07:33;;;;;;;1999.90;999.90;;;5.90;99.90;;;;;;5092293;28;20389;-72
2023/02/01 01:09:58;;;;;;;1999.90;999.90;;;6.00;99.90;;;;;;5092110;28;20445;-72
2023/02/01 01:12:24;;;;;;;1999.90;999.90;;;6.00;99.90;;;;;;5093392;28;20498;-80
2023/02/01 01:14:49;;;;;;;1999.90;999.90;;;6.00;99.90;;;;;;5093401;28;20020;-79
2023/02/01 01:17:16;;;;;;;1999.90;999.90;;;6.10;99.90;;;;;;5092660;28;20032;-72
2023/02/01 01:19:42;;;;;;;1999.90;999.90;;;6.10;99.90;;;;;;5092697;28;20020;-72
2023/02/01 01:22:07;;;;;;;1999.90;999.90;;;6.20;99.90;;;;;;5093438;28;20032;-72
2023/02/01 01:24:33;;;;;;;1999.90;999.90;;;6.30;99.90;;;;;;5093325;28;20508;-72
2023/02/01 01:26:59;;;;;;;1999.90;999.90;;;6.30;99.90;;;;;;5092724;28;20040;-72
2023/02/01 01:29:24;;;;;;;1999.90;999.90;;;6.40;99.90;;;;;;5093178;28;20504;-78
2023/02/01 01:31:50;;;;;;;1999.90;999.90;;;6.40;99.90;;;;;;5092000;28;20039;-72
2023/02/01 01:34:15;;;;;;;1999.90;999.90;;;6.40;99.90;;;;;;5072803;28;20029;-72
2023/02/01 01:36:41;;;;;;;1999.90;999.90;;;6.50;99.90;;;;;;5079088;28;20035;-72
2023/02/01 01:39:07;;;;;;;1999.90;999.90;;;6.50;99.90;;;;;;5093222;28;20108;-72
2023/02/01 01:41:33;;;;;;;1999.90;999.90;;;6.50;99.90;;;;;;5092731;28;20070;-79
2023/02/01 01:44:03;;;;;;;1999.90;999.90;;;6.50;99.90;;;;;;5092852;28;20055;-72
2023/02/01 01:46:30;;;;;;;1999.90;999.90;;;6.50;99.90;;;;;;5092882;28;20110;-72
2023/02/01 01:49:20;;;;;;;1999.90;999.90;;;6.50;99.90;;;;;;5092895;28;20034;-72
2023/02/01 01:52:00;;;;;;;1999.90;999.90;;;6.50;99.90;;;;;;5091122;28;20032;-72
2023/02/01 01:54:31;;;;;;;1999.90;999.90;;;6.60;99.90;;;;;;5091951;28;20032;-79
2023/02/01 01:57:01;;;;;;;1999.90;999.90;;;6.60;99.90;;;;;;5090768;28;20028;-72
2023/02/01 01:59:27;;;;;;;1999.90;999.90;;;6.60;99.90;;;;;;5093139;28;20020;-72
2023/02/01 02:01:54;;;;;;;1999.90;999.90;;;6.60;99.90;;;;;;5091531;28;20028;-72
2023/02/01 02:04:19;;;;;;;1999.90;999.90;;;6.60;99.90;;;;;;5092657;28;20016;-72
2023/02/01 02:06:56;;;;;;;1999.90;999.90;;;6.60;99.90;;;;;;5091570;28;20446;-72
2023/02/01 02:09:21;;;;;;;1999.90;999.90;;;6.70;99.90;;;;;;5092650;28;20052;-72
2023/02/01 02:11:47;;;;;;;1999.90;999.90;;;6.60;99.90;;;;;;5090800;28;20471;-72
2023/02/01 02:14:16;;;;;;;1999.90;999.90;;;6.70;99.90;;;;;;5092064;28;20104;-72
2023/02/01 02:17:01;;;;;;;1999.90;999.90;;;6.70;99.90;;;;;;5092216;28;20031;-72
2023/02/01 02:19:51;;;;;;;1999.90;999.90;;;6.70;99.90;;;;;;5092541;28;20077;-79
2023/02/01 02:22:42;;;;;;;1999.90;999.90;;;6.70;99.90;;;;;;5092059;28;20059;-72
2023/02/01 02:25:50;;;;;;;1999.90;999.90;;;6.60;99.90;;;;;;5092523;28;20048;-72
2023/02/01 02:28:43;;;;;;;1999.90;999.90;;;6.60;99.90;;;;;;5092208;28;20543;-72
2023/02/01 02:31:45;;;;;;;1999.90;999.90;;;6.70;99.90;;;;;;5092314;28;20021;-72
2023/02/01 02:34:31;;;;;;;1999.90;999.90;;;6.70;99.90;;;;;;5072388;28;20025;-72
2023/02/01 02:37:09;;;;;;;1999.90;999.90;;;6.70;99.90;;;;;;5079990;28;20035;-72
2023/02/01 02:39:49;;;;;;;1999.90;999.90;;;6.70;99.90;;;;;;5090786;28;20508;-72
2023/02/01 02:48:45;;;;;;;1999.90;999.90;;;6.70;99.90;;;;;;5092251;28;20150;-72
2023/02/01 02:54:46;;;;;;;1999.90;999.90;;;6.70;99.90;;;;;;5092042;28;20464;-72
2023/02/01 03:05:50;;;;;;;1999.90;999.90;;;6.70;99.90;;;;;;5092117;28;20030;-72
2023/02/01 03:08:25;;;;;;;1999.90;999.90;;;6.70;99.90;;;;;;5093589;28;20028;-72
2023/02/01 03:11:03;;;;;;;1999.90;999.90;;;6.70;99.90;;;;;;5095879;28;20422;-72
2023/02/01 03:13:43;;;;;;;1999.90;999.90;;;6.80;99.90;;;;;;5094275;28;20400;-79
2023/02/01 03:16:26;;;;;;;1999.90;999.90;;;6.80;99.90;;;;;;5094316;28;20438;-72
2023/02/01 03:19:06;;;;;;;1999.90;999.90;;;6.80;99.90;;;;;;5096140;28;20024;-72
2023/02/01 03:21:40;;;;;;;1999.90;999.90;;;6.80;99.90;;;;;;5095945;28;20024;-72
2023/02/01 03:24:32;;;;;;;1999.90;999.90;;;6.80;99.90;;;;;;5095556;28;20098;-72
2023/02/01 03:27:13;;;;;;;1999.90;999.90;;;6.80;99.90;;;;;;5095946;28;20365;-72
2023/02/01 03:30:05;;;;;;;1999.90;999.90;;;6.80;99.90;;;;;;5095540;28;20028;-72
2023/02/01 03:32:57;;;;;;;1999.90;999.90;;;6.80;99.90;;;;;;5078131;28;20068;-72
2023/02/01 03:35:23;;;;;;;1999.90;999.90;;;6.70;99.90;;;;;;5074924;28;20032;-72
2023/02/01 03:37:50;;;;;;;1999.90;999.90;;;6.60;99.90;;;;;;5089334;28;20020;-79
2023/02/01 03:40:19;;;;;;;1999.90;999.90;;;6.60;99.90;;;;;;5095800;28;20024;-72
2023/02/01 03:42:50;;;;;;;1999.90;999.90;;;6.60;99.90;;;;;;5095134;28;20023;-73
2023/02/01 03:45:22;;;;;;;1999.90;999.90;;;6.60;99.90;;;;;;5095266;28;20048;-72
2023/02/01 03:47:52;;;;;;;1999.90;999.90;;;6.60;99.90;;;;;;5095281;28;20138;-72
2023/02/01 03:50:20;;;;;;;1999.90;999.90;;;6.70;99.90;;;;;;5095258;28;20036;-72
2023/02/01 03:53:10;;;;;;;1999.90;999.90;;;6.70;99.90;;;;;;5095074;28;20028;-72
2023/02/01 03:55:37;;;;;;;1999.90;999.90;;;6.70;99.90;;;;;;5094891;28;20024;-72
2023/02/01 03:58:18;;;;;;;1999.90;999.90;;;6.70;99.90;;;;;;5094974;28;20392;-72
2023/02/01 04:00:51;;;;;;;1999.90;999.90;;;6.70;99.90;;;;;;5094898;28;20515;-79
2023/02/01 04:03:17;;;;;;;;;;;6.70;99.90;;;;;;5095507;28;20035;-79
2023/02/01 04:05:42;;;;;;;1999.90;999.90;;;6.70;99.90;;;;;;5094551;28;19916;-72
2023/02/01 04:08:08;;;;;;;1999.90;999.90;;;6.70;99.90;;;;;;5095156;28;20020;-72
2023/02/01 04:10:33;;;;;;;1999.90;999.90;;;6.70;99.90;;;;;;5093266;28;20123;-72
2023/02/01 04:12:59;;;;;;;1999.90;999.90;;;6.70;99.90;;;;;;5094811;28;20023;-72
2023/02/01 04:15:25;;;;;;;1999.90;999.90;;;6.70;99.90;;;;;;5094487;28;20035;-79
2023/02/01 04:17:50;;;;;;;1999.90;999.90;;;6.70;99.90;;;;;;5092222;28;20017;-72
2023/02/01 04:20:16;;;;;;;1999.90;999.90;;;6.70;99.90;;;;;;5093853;28;20032;-72
2023/02/01 04:22:42;;;;;;;1999.90;999.90;;;6.70;99.90;;;;;;5094607;28;20054;-72
2023/02/01 04:25:08;;;;;;;1999.90;999.90;;;6.70;99.90;;;;;;5094914;28;20028;-72
2023/02/01 04:27:34;;;;;;;1999.90;999.90;;;6.70;99.90;;;;;;5094306;28;20024;-72
2023/02/01 04:29:59;;;;;;;1999.90;999.90;;;6.60;99.90;;;;;;5094450;28;20067;-79
2023/02/01 04:32:25;;;;;;;1999.90;999.90;;;6.60;99.90;;;;;;5088615;28;20040;-79
2023/02/01 04:34:51;;;;;;;1999.90;999.90;;;6.60;99.90;;;;;;5074119;28;20032;-72
2023/02/01 04:37:16;;;;;;;1999.90;999.90;;;6.60;99.90;;;;;;5084352;28;20035;-72
2023/02/01 04:39:42;;;;;;;1999.90;999.90;;;6.60;99.90;;;;;;5093999;28;20024;-72
2023/02/01 04:42:08;;;;;;;1999.90;999.90;;;6.60;99.90;;;;;;5094252;28;20016;-80
2023/02/01 04:44:36;;;;;;;1999.90;999.90;;;6.60;99.90;;;;;;5093856;28;20079;-80
2023/02/01 04:47:02;;;;;;;1999.90;999.90;;;6.70;99.90;;;;;;5093850;28;20052;-72
2023/02/01 04:49:28;;;;;;;1999.90;999.90;;;6.60;99.90;;;;;;5093589;28;20070;-72
2023/02/01 04:51:53;;;;;;;1999.90;999.90;;;6.50;99.90;;;;;;5094123;28;20035;-72
2023/02/01 04:54:19;;;;;;;1999.90;999.90;;;6.50;99.90;;;;;;5092713;28;20024;-72
2023/02/01 04:56:44;;;;;;;1999.90;999.90;;;6.40;99.90;;;;;;5093588;28;20032;-72
2023/02/01 04:59:11;;;;;;;1999.90;999.90;;;6.30;99.90;;;;;;5094083;28;20099;-72
2023/02/01 05:01:37;;;;;;;1999.90;999.90;;;6.30;99.90;;;;;;5092679;28;20024;-72
2023/02/01 05:04:03;;;;;;;1999.90;999.90;;;6.30;99.90;;;;;;5093907;28;20077;-72
2023/02/01 05:06:28;;;;;;;1999.90;999.90;;;6.20;99.90;;;;;;5093715;28;20500;-71
2023/02/01 05:08:54;;;;;;;1999.90;999.90;;;6.20;99.90;;;;;;5093173;28;20385;-80
2023/02/01 05:14:04;;;;;;;1999.90;999.90;;;6.20;99.90;;;;;;5093432;28;20035;-72
2023/02/01 05:16:29;;;;;;;1999.90;999.90;;;6.10;99.90;;;;;;5092902;28;20024;-72
2023/02/01 05:18:55;;;;;;;1999.90;999.90;;;6.10;99.90;;;;;;5093299;28;20032;-72
2023/02/01 05:21:21;;;;;;;1999.90;999.90;;;6.10;99.90;;;;;;5093549;28;20020;-80
2023/02/01 05:26:31;;;;;;;1999.90;999.90;;;6.10;99.90;;;;;;5093327;28;20035;-72
2023/02/01 05:28:57;;;;;;;1999.90;999.90;;;6.10;99.90;;;;;;5093267;28;20028;-72
2023/02/01 05:31:23;;;;;;;1999.90;999.90;;;6.10;99.90;;;;;;5092144;28;20016;-72
2023/02/01 05:33:49;;;;;;;1999.90;999.90;;;6.10;99.90;;;;;;5075655;28;20508;-72
2023/02/01 05:36:14;;;;;;;1999.90;999.90;;;6.20;99.90;;;;;;5075810;28;20086;-72
2023/02/01 05:38:40;;;;;;;1999.90;999.90;;;6.20;99.90;;;;;;5092028;28;20028;-71
2023/02/01 05:41:06;;;;;;;1999.90;999.90;;;6.20;99.90;;;;;;5091888;28;20028;-72
2023/02/01 05:43:32;;;;;;;1999.90;999.90;;;6.10;99.90;;;;;;5093124;28;20062;-72
2023/02/01 05:45:57;;;;;;;1999.90;999.90;;;6.10;99.90;;;;;;5093308;28;20062;-77
2023/02/01 05:48:23;;;;;;;1999.90;999.90;;;6.10;99.90;;;;;;5092499;28;20484;-72
2023/02/01 05:50:48;;;;;;;1999.90;999.90;;;6.10;99.90;;;;;;5093198;28;20067;-79
2023/02/01 05:53:14;;;;;;;1999.90;999.90;;;6.10;99.90;;;;;;5093071;28;20084;-72
2023/02/01 05:55:41;;;;;;;1999.90;999.90;;;6.10;99.90;;;;;;5092849;28;20039;-72
2023/02/01 05:58:06;;;;;;;1999.90;999.90;;;6.00;99.90;;;;;;5092912;28;20025;-72
2023/02/01 06:00:32;;;;;;;1999.90;999.90;;;6.10;99.90;;;;;;5092132;28;20404;-72
2023/02/01 06:02:58;;;;;;;1999.90;999.90;;;6.10;99.90;;;;;;5091404;28;20091;-72
2023/02/01 06:05:23;;;;;;;1999.90;999.90;;;6.20;99.90;;;;;;5092794;28;20028;-72
2023/02/01 06:07:49;;;;;;;1999.90;999.90;;;6.20;99.90;;;;;;5092580;28;20028;-72
2023/02/01 06:10:19;;;;;;;1999.90;999.90;;;6.20;99.90;;;;;;5092303;28;20024;-80
2023/02/01 06:12:45;;;;;;;1999.90;999.90;;;6.20;99.90;;;;;;5092147;28;20051;-72
2023/02/01 06:15:12;;;;;;;1999.90;999.90;;;6.20;99.90;;;;;;5092536;28;20024;-72
2023/02/01 06:17:39;;;;;;;1999.90;999.90;;;6.20;99.90;;;;;;5092231;28;20036;-72
2023/02/01 06:20:06;;;;;;;1999.90;999.90;;;6.20;99.90;;;;;;5091745;28;20020;-70
2023/02/01 06:22:32;;;;;;;1999.90;999.90;;;6.30;99.90;;;;;;5101285;28;20012;-80
2023/02/01 06:24:58;;;;;;;1999.90;999.90;;;6.30;99.90;;;;;;5112750;28;20028;-71
2023/02/01 06:27:24;;;;;;;1999.90;999.90;;;6.30;99.90;;;;;;5092391;28;20024;-72
2023/02/01 06:29:50;;;;;;;1999.90;999.90;;;6.40;99.90;;;;;;5091950;28;20032;-80
2023/02/01 06:32:17;;;;;;;1999.90;999.90;;;6.40;99.90;;;;;;5087532;28;20078;-72
2023/02/01 06:34:42;;;;;;;1999.90;999.90;;;6.40;99.90;;;;;;5089652;28;20381;-78
2023/02/01 06:37:08;;;;;;;1999.90;999.90;;;6.50;99.90;;;;;;5090610;28;20024;-80
2023/02/01 06:39:34;;;;;;;1999.90;999.90;;;6.50;99.90;;;;;;5091067;28;20023;-72
2023/02/01 06:42:00;;;;;;;1999.90;999.90;;;6.50;99.90;;;;;;5090065;28;20039;-72
2023/02/01 06:44:25;;;;;;;1999.90;999.90;;;6.50;99.90;;;;;;5091308;28;20048;-72
2023/02/01 06:46:51;;;;;;;1999.90;999.90;;;6.50;99.90;;;;;;5090138;28;20046;-80
2023/02/01 06:49:18;;;;;;;1999.90;999.90;;;6.50;99.90;;;;;;5092698;28;20476;-80
2023/02/01 06:51:43;;;;;;;1999.90;999.90;;;6.50;99.90;;;;;;5098828;28;20106;-71
2023/02/01 06:54:09;;;;;;;1999.90;999.90;;;6.50;99.90;;;;;;5104071;28;20112;-72
2023/02/01 06:56:34;;;;;;;1999.90;999.90;;;6.50;99.90;;;;;;5103441;28;20503;-80
2023/02/01 06:59:04;;;;;;;1999.90;999.90;;;6.40;99.90;;;;;;5112315;28;20035;-80
2023/02/01 07:01:29;;;;;;;1999.90;999.90;;;6.40;99.90;;;;;;5101363;28;20150;-75
2023/02/01 07:03:55;;;;;;;1999.90;999.90;;;6.50;99.90;;;;;;5087112;28;20517;-80
2023/02/01 07:06:21;;;;;;;1999.90;999.90;;;6.50;99.90;;;;;;5089981;28;20024;-71
2023/02/01 07:08:47;;;;;;;1999.90;999.90;;;6.50;99.90;;;;;;5089877;28;20150;-80
2023/02/01 07:11:15;;;;;;;1999.90;999.90;;;6.60;99.90;;;;;;5098272;28;20028;-72
2023/02/01 07:13:41;;;;;;;1999.90;999.90;;;6.60;99.90;;;;;;5093954;28;20035;-80
2023/02/01 07:16:10;;;;;;;1999.90;999.90;;;6.70;99.90;;;;;;5085182;28;20028;-72
2023/02/01 07:18:36;;;;;;;1999.90;999.90;;;6.80;99.90;;;;;;5081944;28;20024;-71
2023/02/01 07:21:01;;;;;;;1999.90;999.90;;;6.80;99.90;;;;;;5084686;28;20527;-80
2023/02/01 07:23:27;;;;;;;1999.90;999.90;;;6.80;99.90;;;;;;5086277;28;20499;-78
2023/02/01 07:25:57;;;;;;;1999.90;999.90;;;6.80;99.90;;;;;;5082578;28;20557;-72
2023/02/01 07:28:24;;;;;;;1999.90;999.90;;;6.90;99.90;;;;;;5085078;28;20028;-73
2023/02/01 07:30:50;;;;;;;1999.90;999.90;;;6.90;99.90;;;;;;5087969;28;20511;-72
2023/02/01 07:33:26;;;;;;;1999.90;999.90;;;6.90;99.90;;;;;;5087726;28;20028;-72
2023/02/01 07:35:52;;;;;;;1999.90;999.90;;;6.90;99.90;;;;;;5087207;28;20411;-71
2023/02/01 07:38:17;;;;;;;1999.90;999.90;;;6.90;99.90;;;;;;5087544;28;20036;-73
2023/02/01 07:40:43;;;;;;;1999.90;999.90;;;7.00;99.90;;;;;;5087111;28;20028;-72
2023/02/01 07:43:09;;;;;;;1999.90;999.90;;;7.00;99.90;;;;;;5092390;28;20479;-71
2023/02/01 07:45:36;;;;;;;1999.90;999.90;;;7.00;99.90;;;;;;5079407;28;20055;-72
2023/02/01 07:48:02;;;;;;;1999.90;999.90;;;7.00;99.90;;;;;;5077891;28;20113;-79
2023/02/01 07:50:27;;;;;;;1999.90;999.90;;;7.10;99.90;;;;;;5079748;28;20047;-79
2023/02/01 07:52:53;;;;;;;1999.90;999.90;;;7.20;99.90;;;;;;5089159;28;20028;-80
2023/02/01 07:55:20;;;;;;;1999.90;999.90;;;7.20;99.90;;;;;;5085003;28;20035;-72
2023/02/01 07:57:45;;;;;;;1999.90;999.90;;;7.20;99.90;;;;;;5086296;28;20488;-72
2023/02/01 08:03:00;;;;;;;1999.90;999.90;;;7.30;99.90;;;;;;5082997;28;20035;-79
2023/02/01 08:05:26;;;;;;;1999.90;999.90;;;7.20;99.90;;;;;;5089918;28;20040;-72
2023/02/01 08:07:51;;;;;;;1999.90;999.90;;;7.30;99.90;;;;;;5089336;28;20078;-72
2023/02/01 08:10:19;;;;;;;1999.90;999.90;;;7.30;99.90;;;;;;5087718;28;20044;-71
2023/02/01 08:12:48;;;;;;;1999.90;999.90;;;7.20;99.90;;;;;;5085315;28;20040;-72
2023/02/01 08:15:17;;;;;;;1999.90;999.90;;;7.20;99.90;;;;;;5077026;28;20043;-71
2023/02/01 08:17:50;;;;;;;1999.90;999.90;;;7.30;99.90;;;;;;5091050;28;20028;-79
2023/02/01 08:20:17;;;;;;;1999.90;999.90;;;7.40;99.90;;;;;;5085777;28;20512;-71
2023/02/01 08:22:43;;;;;;;1999.90;999.90;;;7.40;99.90;;;;;;5082013;28;20043;-77
2023/02/01 08:25:09;;;;;;;1999.90;999.90;;;7.40;99.90;;;;;;5087360;28;20043;-71
2023/02/01 08:27:35;;;;;;;1999.90;999.90;;;7.50;99.90;;;;;;5088151;28;20155;-80
2023/02/01 08:30:01;;;;;;;1999.90;999.90;;;7.60;99.90;;;;;;5078757;28;20055;-75
2023/02/01 08:32:27;;;;;;;1999.90;999.90;;;7.60;99.90;;;;;;5089546;28;20036;-80
2023/02/01 08:34:53;;;;;;;1999.90;999.90;;;7.70;99.90;;;;;;5089688;28;20488;-80
2023/02/01 08:37:19;;;;;;;1999.90;999.90;;;7.70;99.90;;;;;;5095162;27;20063;-72
2023/02/01 08:39:44;;;;;;;1999.90;999.90;;;7.80;99.90;;;;;;5085440;28;20032;-72
2023/02/01 08:44:56;;;;;;;1999.90;999.90;;;8.00;99.90;;;;;;5092837;28;20082;-76
2023/02/01 08:47:21;;;;;;;1999.90;999.90;;;8.10;99.90;;;;;;5082779;28;20028;-74
2023/02/01 08:49:47;;;;;;;1999.90;999.90;;;8.10;99.90;;;;;;5092413;28;20043;-72
2023/02/01 08:52:13;;;;;;;1999.90;999.90;;;8.00;99.90;;;;;;5096539;28;20062;-72
2023/02/01 08:54:40;;;;;;;1999.90;999.90;;;7.90;99.90;;;;;;5091057;28;20035;-72
2023/02/01 08:57:06;;;;;;;1999.90;999.90;;;7.90;99.90;;;;;;5087826;28;20119;-74
2023/02/01 08:59:32;;;;;;;1999.90;999.90;;;7.90;99.90;;;;;;5087902;28;20107;-79
2023/02/01 09:01:57;;;;;;;1999.90;999.90;;;7.90;99.90;;;;;;5084572;28;20510;-72
2023/02/01 09:04:23;;;;;;;1999.90;999.90;;;8.00;99.90;;;;;;5088923;28;20040;-79
2023/02/01 09:06:49;;;;;;;1999.90;999.90;;;8.00;99.90;;;;;;5098643;28;20039;-79
2023/02/01 09:09:14;;;;;;;1999.90;999.90;;;8.10;99.90;;;;;;5087613;28;20030;-72
2023/02/01 09:11:40;;;;;;;1999.90;999.90;;;8.10;99.90;;;;;;5078530;28;20039;-80
2023/02/01 09:14:06;;;;;;;1999.90;999.90;;;8.20;99.90;;;;;;5091682;28;20161;-80
2023/02/01 09:16:31;;;;;;;1999.90;999.90;;;8.30;99.90;;;;;;5093450;28;20032;-71
2023/02/01 09:18:57;;;;;;;1999.90;999.90;;;8.30;99.90;;;;;;5088993;28;20024;-80
2023/02/01 09:21:23;;;;;;;1999.90;999.90;;;8.30;99.90;;;;;;5088666;28;20036;-79
2023/02/01 09:23:51;;;;;;;1999.90;999.90;;;8.40;99.90;;;;;;5089749;28;20639;-80
2023/02/01 09:26:17;;;;;;;1999.90;999.90;;;8.50;99.90;;;;;;5084660;28;20495;-79
2023/02/01 09:28:42;;;;;;;1999.90;999.90;;;8.60;99.90;;;;;;5090587;28;20038;-72
2023/02/01 09:31:08;;;;;;;1999.90;999.90;;;8.80;99.90;;;;;;5090012;28;20032;-71
2023/02/01 09:33:34;;;;;;;1999.90;999.90;;;9.00;99.90;;;;;;5089090;28;20142;-80
2023/02/01 09:36:02;;;;;;;1999.90;999.90;;;9.10;99.90;;;;;;5077139;28;20064;-71
2023/02/01 09:38:28;;;;;;;1999.90;999.90;;;9.20;99.90;;;;;;5081006;28;20036;-80
2023/02/01 09:40:55;;;;;;;1999.90;999.90;;;9.40;99.90;;;;;;5075485;28;20032;-72
2023/02/01 09:43:41;;;;;;;1999.90;999.90;;;9.50;99.90;;;;;;5077025;28;20078;-72
2023/02/01 09:46:19;;;;;;;1999.90;999.90;;;9.80;99.90;;;;;;5089873;28;20044;-80
2023/02/01 09:48:46;;;;;;;1999.90;999.90;;;10.00;99.90;;;;;;5092118;28;20526;-79
2023/02/01 09:51:23;;;;;;;1999.90;999.90;;;10.10;99.90;;;;;;5094070;28;20110;-72
2023/02/01 09:54:05;;;;;;;1999.90;999.90;;;10.20;99.90;;;;;;5085809;28;20035;-80
2023/02/01 09:56:52;;;;;;;1999.90;999.90;;;10.40;99.90;;;;;;5084819;28;20031;-72
2023/02/01 09:59:34;;;;;;;1999.90;999.90;;;10.40;99.90;;;;;;5078541;28;20056;-72
2023/02/01 10:02:03;;;;;;;1999.90;999.90;;;10.30;99.90;;;;;;5098432;28;20110;-72
2023/02/01 10:04:29;;;;;;;1999.90;999.90;;;10.20;99.90;;;;;;5087406;28;20097;-80
2023/02/01 10:07:03;;;;;;;1999.90;999.90;;;10.10;99.90;;;;;;5091472;28;20117;-77
2023/02/01 10:10:00;;;;;;;1999.90;999.90;;;10.30;99.90;;;;;;5080845;28;20062;-70
2023/02/01 10:13:03;;;;;;;1999.90;999.90;;;10.70;99.90;;;;;;5079366;28;20032;-81
2023/02/01 10:15:48;;;;;;;1999.90;999.90;;;10.90;99.90;;;;;;5075993;28;20106;-82
2023/02/01 10:18:49;;;;;;;1999.90;999.90;;;10.70;99.90;;;;;;5075958;28;20032;-80
2023/02/01 10:21:22;;;;;;;1999.90;999.90;;;10.70;99.90;;;;;;5075732;28;20020;-72
2023/02/01 10:24:28;;;;;;;1999.90;999.90;;;10.80;99.90;;;;;;5080121;28;20028;-71
2023/02/01 10:27:22;;;;;;;1999.90;999.90;;;11.00;99.90;;;;;;5087202;28;20076;-72
2023/02/01 10:30:03;;;;;;;1999.90;999.90;;;10.70;99.90;;;;;;5075969;28;20191;-75
2023/02/01 10:32:32;;;;;;;1999.90;999.90;;;10.70;99.90;;;;;;5080630;28;20032;-71
2023/02/01 10:35:01;;;;;;;1999.90;999.90;;;11.00;99.90;;;;;;5082708;28;20117;-72
2023/02/01 10:37:30;;;;;;;1999.90;999.90;;;10.80;99.90;;;;;;5072121;28;20362;-79
2023/02/01 10:40:00;;;;;;;1999.90;999.90;;;10.60;99.90;;;;;;5077945;28;20142;-81
2023/02/01 10:42:28;;;;;;;1999.90;999.90;;;10.80;99.90;;;;;;5084178;28;20024;-74
2023/02/01 10:44:57;;;;;;;1999.90;999.90;;;10.70;99.90;;;;;;5076883;28;20059;-80
2023/02/01 10:47:24;;;;;;;1999.90;999.90;;;10.70;99.90;;;;;;5075584;28;20049;-72
2023/02/01 10:50:00;;;;;;;1999.90;999.90;;;10.80;99.90;;;;;;5073410;28;20110;-72
2023/02/01 10:52:32;;;;;;;1999.90;999.90;;;11.00;99.90;;;;;;5080082;28;20031;-81
2023/02/01 10:55:32;;;;;;;1999.90;999.90;;;11.10;99.90;;;;;;5084867;28;20033;-72
2023/02/01 10:58:00;;;;;;;1999.90;999.90;;;11.20;99.90;;;;;;5076350;28;20253;-81
2023/02/01 11:00:27;;;;;;;1999.90;999.90;;;11.20;99.90;;;;;;5085530;28;20613;-72
2023/02/01 11:02:54;;;;;;;1999.90;999.90;;;11.30;99.90;;;;;;5086531;28;20024;-72
2023/02/01 11:05:22;;;;;;;1999.90;999.90;;;11.40;99.90;;;;;;5075375;28;20039;-80
2023/02/01 11:07:54;;;;;;;1999.90;999.90;;;11.30;99.90;;;;;;5078861;28;20059;-80
2023/02/01 11:10:41;;;;;;;1999.90;999.90;;;11.20;99.90;;;;;;5077575;28;20093;-72
2023/02/01 11:13:18;;;;;;;1999.90;999.90;;;11.10;99.90;;;;;;5078778;28;20535;-71
2023/02/01 11:15:55;;;;;;;1999.90;999.90;;;10.90;99.90;;;;;;5086021;28;20028;-71
2023/02/01 11:18:27;;;;;;;1999.90;999.90;;;11.00;99.90;;;;;;5081354;28;20048;-72
2023/02/01 11:20:54;;;;;;;1999.90;999.90;;;10.90;99.90;;;;;;5082546;28;20036;-72
2023/02/01 11:23:23;;;;;;;1999.90;999.90;;;11.00;99.90;;;;;;5080871;28;20395;-77
2023/02/01 11:25:55;;;;;;;1999.90;999.90;;;11.10;99.90;;;;;;5079487;28;20123;-72
2023/02/01 11:28:25;;;;;;;1999.90;999.90;;;11.00;99.90;;;;;;5069151;28;20198;-72
2023/02/01 11:30:54;;;;;;;1999.90;999.90;;;11.00;99.90;;;;;;5081629;28;20032;-81
2023/02/01 11:33:31;;;;;;;1999.90;999.90;;;11.20;99.90;;;;;;5084924;28;20054;-74
2023/02/01 11:35:59;;;;;;;1999.90;999.90;;;11.50;99.90;;;;;;5082117;28;20044;-71
2023/02/01 11:38:30;;;;;;;1999.90;999.90;;;11.50;99.90;;;;;;5085310;28;20039;-74
2023/02/01 11:41:21;;;;;;;1999.90;999.90;;;11.60;99.90;;;;;;5088014;28;20034;-72
2023/02/01 11:43:53;;;;;;;1999.90;999.90;;;11.80;99.90;;;;;;5075423;28;20855;-81
2023/02/01 11:46:24;;;;;;;1999.90;999.90;;;11.80;99.90;;;;;;5087270;28;20039;-81
2023/02/01 11:48:52;;;;;;;1999.90;999.90;;;11.80;99.90;;;;;;5075063;28;20038;-79
2023/02/01 11:52:06;;;;;;;1999.90;999.90;;;11.80;99.90;;;;;;5080166;28;20038;-71
2023/02/01 11:54:54;;;;;;;1999.90;999.90;;;12.30;99.90;;;;;;5033441;28;20048;-72
2023/02/01 11:57:55;;;;;;;1999.90;999.90;;;12.30;99.90;;;;;;5082785;28;20108;-81
2023/02/01 12:00:59;;;;;;;1999.90;999.90;;;12.50;99.90;;;;;;5083335;28;20491;-81
2023/02/01 12:03:37;;;;;;;1999.90;999.90;;;12.80;99.90;;;;;;5089449;28;20028;-72
2023/02/01 12:06:32;;;;;;;1999.90;999.90;;;12.30;99.90;;;;;;5084294;28;20024;-81
2023/02/01 12:09:35;;;;;;;1999.90;999.90;;;11.90;99.90;;;;;;5090694;28;20028;-80
2023/02/01 12:12:04;;;;;;;1999.90;999.90;;;11.50;99.90;;;;;;5077913;28;20032;-72
2023/02/01 12:15:01;;;;;;;1999.90;999.90;;;11.30;99.90;;;;;;5081538;28;20404;-74
2023/02/01 12:17:41;;;;;;;1999.90;999.90;;;11.20;99.90;;;;;;5076851;28;20119;-71
2023/02/01 12:20:22;;;;;;;1999.90;999.90;;;11.20;99.90;;;;;;5079464;28;20024;-81
2023/02/01 12:23:18;;;;;;;1999.90;999.90;;;11.10;99.90;;;;;;5079659;28;20032;-71
2023/02/01 12:26:07;;;;;;;1999.90;999.90;;;11.20;99.90;;;;;;5081050;28;20824;-80
2023/02/01 12:28:39;;;;;;;1999.90;999.90;;;11.90;99.90;;;;;;5081926;28;20044;-73
2023/02/01 12:31:17;;;;;;;1999.90;999.90;;;12.90;99.90;;;;;;5081822;28;20035;-71
2023/02/01 12:33:58;;;;;;;1999.90;999.90;;;13.50;99.90;;;;;;5097128;28;20075;-71
2023/02/01 12:36:41;;;;;;;1999.90;999.90;;;13.50;99.90;;;;;;5090295;28;20039;-81
2023/02/01 12:39:24;;;;;;;1999.90;999.90;;;12.90;99.90;;;;;;5081495;28;20028;-81
2023/02/01 12:42:15;;;;;;;1999.90;999.90;;;12.90;99.90;;;;;;5078267;28;20100;-82
2023/02/01 12:44:41;;;;;;;1999.90;999.90;;;13.00;99.90;;;;;;5086167;28;20085;-79
2023/02/01 12:47:32;;;;;;;1999.90;999.90;;;13.50;99.90;;;;;;5084088;28;20039;-74
2023/02/01 12:50:21;;;;;;;1999.90;999.90;;;13.40;99.90;;;;;;5081965;28;20043;-72
2023/02/01 12:52:52;;;;;;;1999.90;999.90;;;12.90;99.90;;;;;;5079157;28;20119;-79
2023/02/01 12:55:38;;;;;;;1999.90;999.90;;;12.60;99.90;;;;;;5081048;28;20077;-72